Crew | Aerofun Virtual



 METAR AND TAF INFORMATION
METAR FOR LPPD
ADDS - METARS form results

(0526 UTC 20 May 2019)
Data provider http://aviationweather.gov/metar/data/
 
METAR text: LPPD 200500Z 24011KT 9999 FEW016 BKN025 17/15 Q1020
Conditions at: LPPD (PONTA DELGADA/NO, PT) observed 0500 UTC 20 May 2019
Temperature: 17.0°C (63°F)
Dewpoint: 15.0°C (59°F) [RH = 88%]
Pressure (altimeter): 30.12 inches Hg (1020.0 mb)
Winds: from the WSW (240 degrees) at 13 MPH (11 knots; 5.7 m/s)
Visibility: 6 or more miles (10+ km)
Ceiling: 2500 feet AGL
Clouds: few clouds at 1600 feet AGL
broken clouds at 2500 feet AGL
Weather: no significant weather observed at this time

METAR text: LPPD 200430Z 25010KT 9999 FEW016 BKN025 17/15 Q1020
Conditions at: LPPD (PONTA DELGADA/NO, PT) observed 0430 UTC 20 May 2019
Temperature: 17.0°C (63°F)
Dewpoint: 15.0°C (59°F) [RH = 88%]
Pressure (altimeter): 30.12 inches Hg (1020.0 mb)
Winds: from the WSW (250 degrees) at 12 MPH (10 knots; 5.1 m/s)
Visibility: 6 or more miles (10+ km)
Ceiling: 2500 feet AGL
Clouds: few clouds at 1600 feet AGL
broken clouds at 2500 feet AGL
Weather: no significant weather observed at this time

Forecast for: LPPD (PONTA DELGADA/NO, PT)
Text: TAF LPPD 200500Z 2006/2106 24010KT 9999 FEW015 BKN025
Forecast period: 0600 to 2100 UTC 20 May 2019
Forecast type: FROM: standard forecast or significant change
Winds: from the WSW (240 degrees) at 12 MPH (10 knots; 5.1 m/s)
Visibility: 6 or more miles 10+ km)
Ceiling: 2500 feet AGL
Clouds: few clouds at 1500 feet AGL
broken clouds at 2500 feet AGL
Weather: no significant weather forecast for this period
Text: TEMPO 2006/2021 SCT020
Forecast period: 0600 to 2100 UTC 20 May 2019
Forecast type: TEMPORARY: The following changes expected for less than half the time period
Visibility: missing
Ceiling: at least 12,000 feet AGL
Clouds: scattered clouds at 2000 feet AGL
Weather: no significant weather forecast for this period
Text: BECMG 2021/2024 21015KT SCT010 BKN020
Forecast period: 2100 UTC 20 May 2019 to 0600 UTC 21 May 2019
Forecast type: BECOMING: Conditions expected to become as follows by 0000 UTC 21 May 2019
Winds: from the SSW (210 degrees) at 17 MPH (15 knots; 7.7 m/s)
Visibility: 6 or more miles 10+ km)
Ceiling: 2000 feet AGL
Clouds: scattered clouds at 1000 feet AGL
broken clouds at 2000 feet AGL
Weather: no significant weather forecast for this period

 AIRPORT MAP

 RUNWAY INFORMATION
Runway 12 Runway length 8192 ft Runway width 148 ft
Runway elevation 259 ft Runway displaced threshold 0 ft Runway heading 112
Runway 30 Runway length 8192 ft Runway width 148 ft
Runway elevation 187 ft Runway displaced threshold 787 ft Runway heading 292

 AIRPORT FREQUENCIES
Type APP Name APP Frequency 119.4 MHZ
Type TWR Name TWR Frequency 118.3 MHZ

 AIRPORT NEAR NAVIGATION AIDS
Type NDB Name Ponta Delgada Frequency 371 KHZ
Type NDB Name Ponta Delgada Frequency 351 KHZ
Type VORTAC Name Sao Miguel Frequency 114500 KHZ